KLWB

Greenbrier Valley Airport

Lewisburg, West Virginia, USA
METAR KLWB 232215Z AUTO 25003KT 10SM SCT075 22/13 A3027 RMK AO2 T02220125
Observed Flight Rules
Feb-23 @ 22:15 UTC (17 minutes ago) Visual Flight Rules
Wind Visibility Clouds
250° at 3 knots 10 miles
  • Scattered at 7,500' AGL
Temperatures Readings
Current 22°C / 72°F
Dewpoint 13°C / 55°F
Humidity 57%
Altimeter 30.27" Hg
Pressure 1025 hPa
Elevation 702
METAR KLWB 232215Z AUTO 25003KT 10SM SCT075 22/13 A3027 RMK AO2 T02220125
Observed Flight Rules
Feb-23 @ 22:15 UTC
(17 minutes ago)
VFR
Wind Visibility
250° at 3 knots 10 miles
Clouds
  • Scattered at 7,500' AGL
Temperature Dewpoint
22°C / 72°F 13°C / 55°F
Humidity Altimeter Pressure
57% 30.27" Hg 1025 hPa